»·PEaware :: AAL156 KLAX-KLAS

AAL156 :: KLAX-KLAS

FLIGHT INFORMATION

Flight Status: Arrived
Operator:
American Airlines
More flights by this operator :: More flights under this callsign
Pilot: Shaurye C. (26796)
Aircraft: AIRBUS A320
(A320)
More flights by this aircraft type
Origin: KLAX Los Angeles Intl
United States
Destination: KLAS McCarran Intl
United States
More flights between these airports :: More routes between these airports
Route: +ORCKA3 MISEN KEPEC6
File this flight plan on PilotEdge
Remarks: RMK / SIMBRIEF
Altitude:
(Current/Filed)
35,000ft
Speed:
(Current/Filed)
457kts
Departed: 05-Nov-19 12:39 PM
Arrived: 05-Nov-19 01:39 PM
Distance/Time
Traveled:
206nm/1:00
Distance/Time
To Go:
Arrived

Flight Plot

Page will automatically refresh every two minutes.

Flight plan parsing failed; only flown route is shown


Map Options




Map Legend


Flown Route
Filed Route
Departure Airport
Arrival Airport
Navaid (VOR, NDB)
Fix

Horizontal Profiles

Position Reports

Time Latitude Longitude Heading Altitude Ground
Speed
05-Nov-19 11:56 33.947184 -118.406600 217 121ft 0kts
05-Nov-19 11:57 33.947184 -118.406600 217 121ft 0kts
05-Nov-19 11:58 33.947184 -118.406600 217 121ft 0kts
05-Nov-19 11:59 33.947184 -118.406600 217 121ft 0kts
05-Nov-19 12:00 33.947184 -118.406600 217 121ft 0kts
05-Nov-19 12:01 33.947184 -118.406600 217 121ft 0kts
05-Nov-19 12:02 33.947184 -118.406600 217 121ft 0kts
05-Nov-19 12:03 33.947184 -118.406600 217 121ft 0kts
05-Nov-19 12:04 33.947184 -118.406600 217 121ft 0kts
05-Nov-19 12:05 33.947184 -118.406600 217 121ft 0kts
05-Nov-19 12:06 33.947184 -118.406600 217 121ft 0kts
05-Nov-19 12:07 33.947184 -118.406600 217 121ft 0kts
05-Nov-19 12:08 33.947184 -118.406600 217 121ft 0kts
05-Nov-19 12:09 33.947184 -118.406600 217 121ft 0kts
05-Nov-19 12:10 33.947184 -118.406600 217 121ft 0kts
05-Nov-19 12:11 33.947184 -118.406600 217 121ft 0kts
05-Nov-19 12:12 33.947184 -118.406600 217 121ft 0kts
05-Nov-19 12:13 33.947184 -118.406600 217 121ft 0kts
05-Nov-19 12:14 33.947184 -118.406600 217 121ft 0kts
05-Nov-19 12:15 33.947184 -118.406600 217 121ft 0kts
05-Nov-19 12:16 33.947184 -118.406600 217 121ft 0kts
05-Nov-19 12:17 33.947184 -118.406600 217 121ft 0kts
05-Nov-19 12:18 33.947265 -118.406522 219 121ft 2kts
05-Nov-19 12:19 33.947604 -118.406208 217 121ft 2kts
05-Nov-19 12:20 33.947842 -118.405770 261 121ft 0kts
05-Nov-19 12:21 33.947849 -118.405695 264 121ft 0kts
05-Nov-19 12:22 33.947849 -118.405695 264 121ft 0kts
05-Nov-19 12:23 33.947849 -118.405695 264 121ft 0kts
05-Nov-19 12:24 33.947849 -118.405695 264 121ft 0kts
05-Nov-19 12:25 33.947832 -118.405877 264 121ft 4kts
05-Nov-19 12:26 33.947541 -118.408689 263 123ft 16kts
05-Nov-19 12:27 33.946547 -118.412753 179 121ft 12kts
05-Nov-19 12:28 33.942505 -118.412155 172 124ft 23kts
05-Nov-19 12:29 33.938240 -118.411536 172 127ft 13kts
05-Nov-19 12:30 33.937838 -118.409110 83 127ft 17kts
05-Nov-19 12:31 33.938413 -118.403435 83 123ft 28kts
05-Nov-19 12:32 33.939112 -118.396644 82 111ft 31kts
05-Nov-19 12:33 33.939787 -118.390058 83 105ft 28kts
05-Nov-19 12:34 33.940419 -118.383823 83 102ft 26kts
05-Nov-19 12:35 33.940722 -118.380882 88 101ft 0kts
05-Nov-19 12:36 33.940705 -118.380701 101 101ft 4kts
05-Nov-19 12:37 33.939730 -118.381160 262 101ft 17kts
05-Nov-19 12:38 33.936873 -118.408676 261 274ft 193kts
05-Nov-19 12:39 33.931498 -118.461753 255 2988ft 209kts
05-Nov-19 12:40 33.911062 -118.534014 249 5299ft 273kts
05-Nov-19 12:41 33.883304 -118.614050 222 8292ft 290kts
05-Nov-19 12:42 33.817545 -118.613342 132 10532ft 310kts
05-Nov-19 12:43 33.809683 -118.529524 59 11657ft 350kts
05-Nov-19 12:44 33.872700 -118.475168 29 13605ft 364kts
05-Nov-19 12:45 33.949887 -118.403040 56 15820ft 374kts
05-Nov-19 12:46 33.999018 -118.316160 56 17538ft 384kts
05-Nov-19 12:47 34.048963 -118.228063 56 19102ft 393kts
05-Nov-19 12:48 34.095303 -118.146192 56 20434ft 400kts
05-Nov-19 12:49 34.141541 -118.064297 56 21649ft 407kts
05-Nov-19 12:50 34.194505 -117.970225 56 22893ft 414kts
05-Nov-19 12:51 34.247513 -117.875829 56 24025ft 422kts
05-Nov-19 12:52 34.302213 -117.778165 56 25116ft 428kts
05-Nov-19 12:53 34.358943 -117.677563 54 26199ft 433kts
05-Nov-19 12:54 34.419707 -117.575202 54 27293ft 436kts
05-Nov-19 12:55 34.480967 -117.471634 54 28173ft 441kts
05-Nov-19 12:56 34.546369 -117.360750 54 29163ft 442kts
05-Nov-19 12:57 34.603439 -117.263725 55 29211ft 439kts
05-Nov-19 12:58 34.667220 -117.154938 55 29212ft 440kts
05-Nov-19 12:59 34.730604 -117.046507 55 29200ft 444kts
05-Nov-19 13:00 34.792642 -116.940031 55 29186ft 454kts
05-Nov-19 13:01 34.855975 -116.831131 55 28896ft 457kts
05-Nov-19 13:02 34.915157 -116.728942 55 28106ft 458kts
05-Nov-19 13:03 34.972153 -116.630262 54 27351ft 460kts
05-Nov-19 13:04 35.028051 -116.533234 54 26228ft 452kts
05-Nov-19 13:05 35.082587 -116.438349 54 24491ft 444kts
05-Nov-19 13:06 35.143509 -116.352066 45 24165ft 458kts
05-Nov-19 13:07 35.210204 -116.268135 45 24164ft 456kts
05-Nov-19 13:08 35.282625 -116.194808 36 24164ft 455kts
05-Nov-19 13:09 35.362734 -116.122456 36 24165ft 456kts
05-Nov-19 13:10 35.449403 -116.043577 36 24166ft 456kts
05-Nov-19 13:11 35.531490 -115.968627 36 24165ft 455kts
05-Nov-19 13:12 35.609456 -115.897255 36 24088ft 456kts
05-Nov-19 13:13 35.691450 -115.821993 36 21648ft 461kts
05-Nov-19 13:14 35.766575 -115.752901 36 19675ft 449kts
05-Nov-19 13:15 35.842329 -115.683055 36 17644ft 436kts
05-Nov-19 13:16 35.914744 -115.616127 36 14638ft 415kts
05-Nov-19 13:17 35.977592 -115.542550 65 11547ft 374kts
05-Nov-19 13:18 36.006457 -115.452870 67 11021ft 318kts
05-Nov-19 13:19 36.029812 -115.375985 81 11027ft 276kts
05-Nov-19 13:20 36.025929 -115.303478 94 11039ft 274kts
05-Nov-19 13:21 36.020663 -115.231539 94 10514ft 276kts
05-Nov-19 13:22 36.015633 -115.160198 94 8901ft 271kts
05-Nov-19 13:23 36.011109 -115.093237 93 8089ft 239kts
05-Nov-19 13:24 36.007145 -115.028607 93 8051ft 244kts
05-Nov-19 13:25 36.003257 -114.962991 93 8039ft 247kts
05-Nov-19 13:26 35.999248 -114.896205 93 8039ft 247kts
05-Nov-19 13:27 35.995276 -114.830674 93 8039ft 247kts
05-Nov-19 13:28 36.006265 -114.775276 34 8043ft 244kts
05-Nov-19 13:29 36.057628 -114.774093 347 7958ft 218kts
05-Nov-19 13:30 36.074313 -114.813695 259 7360ft 178kts
05-Nov-19 13:31 36.070801 -114.862348 271 6311ft 174kts
05-Nov-19 13:32 36.073745 -114.907506 278 5466ft 166kts
05-Nov-19 13:34 36.073211 -114.956879 268 4854ft 216kts
05-Nov-19 13:35 36.072604 -115.010125 271 3968ft 189kts
05-Nov-19 13:36 36.073304 -115.056940 272 2960ft 175kts
05-Nov-19 13:37 36.073457 -115.096989 272 2488ft 148kts
05-Nov-19 13:38 36.073578 -115.134195 270 2069ft 134kts
05-Nov-19 13:39 36.074162 -115.149277 295 2116ft 27kts
05-Nov-19 13:40 36.076814 -115.152217 336 2124ft 21kts
05-Nov-19 13:41 36.078961 -115.152807 126 2122ft 2kts
05-Nov-19 13:42 36.078765 -115.151152 92 2116ft 12kts
05-Nov-19 13:43 36.078487 -115.146736 94 2099ft 24kts
05-Nov-19 13:44 36.078261 -115.141689 90 2083ft 23kts
05-Nov-19 13:45 36.079129 -115.139163 44 2075ft 9kts
05-Nov-19 13:46 36.080198 -115.138146 309 2069ft 1kts
05-Nov-19 13:47 36.080523 -115.138553 318 2069ft 0kts
05-Nov-19 13:48 36.080523 -115.138553 318 2069ft 0kts
05-Nov-19 13:49 36.080523 -115.138552 318 2069ft 0kts
05-Nov-19 13:49 36.080523 -115.138552 318 2069ft 0kts

Navigation Log

Ident Type
Flight plan parsing failed, navigation log unavailable